createdAt,value
2023-03-29T00:00:14.621Z,40.24
2023-03-29T00:02:41.802Z,40.04
2023-03-29T00:05:09.230Z,40.53
2023-03-29T00:07:35.941Z,40.97
2023-03-29T00:10:04.671Z,41.91
2023-03-29T00:12:31.970Z,41.72
2023-03-29T00:15:03.748Z,42.30
2023-03-29T00:17:35.887Z,42.94
2023-03-29T00:20:02.676Z,43.61
2023-03-29T00:22:29.324Z,43.85
2023-03-29T00:24:56.015Z,44.01
2023-03-29T00:27:24.985Z,44.17
2023-03-29T00:29:51.593Z,44.31
2023-03-29T00:32:18.241Z,44.75
2023-03-29T00:34:46.311Z,45.42
2023-03-29T00:37:14.977Z,45.51
2023-03-29T00:39:42.266Z,45.28
2023-03-29T00:42:10.944Z,44.97
2023-03-29T00:44:52.937Z,44.63
2023-03-29T00:47:25.787Z,44.99
2023-03-29T00:49:52.478Z,44.84
2023-03-29T00:52:21.883Z,44.76
2023-03-29T00:54:53.108Z,45.08
2023-03-29T00:57:20.097Z,44.93
2023-03-29T00:59:46.835Z,44.88
2023-03-29T01:02:15.868Z,45.16
2023-03-29T01:04:42.689Z,45.60
2023-03-29T01:07:09.830Z,45.44
2023-03-29T01:09:37.788Z,45.80
2023-03-29T01:12:09.120Z,45.85
2023-03-29T01:14:38.176Z,45.69
2023-03-29T01:17:05.718Z,45.81
2023-03-29T01:19:39.095Z,45.69
2023-03-29T01:22:13.665Z,45.96
2023-03-29T01:24:50.661Z,45.96
2023-03-29T01:27:22.821Z,46.15
2023-03-29T01:29:51.581Z,46.01
2023-03-29T01:32:25.497Z,45.97
2023-03-29T01:34:58.942Z,46.29
2023-03-29T01:37:37.935Z,46.24
2023-03-29T01:40:10.035Z,46.27
2023-03-29T01:42:57.212Z,45.80
2023-03-29T01:45:28.863Z,45.80
2023-03-29T01:48:06.184Z,45.46
2023-03-29T01:50:32.800Z,45.47
2023-03-29T01:53:22.414Z,45.25
2023-03-29T01:55:54.967Z,45.55
2023-03-29T01:58:27.623Z,45.24
2023-03-29T02:00:55.396Z,45.02
2023-03-29T02:03:31.240Z,45.26
2023-03-29T02:06:00.718Z,45.34
2023-03-29T02:08:29.355Z,45.54
2023-03-29T02:10:57.259Z,45.56
2023-03-29T02:13:23.974Z,45.45
2023-03-29T02:15:50.653Z,45.54
2023-03-29T02:18:17.780Z,45.25
2023-03-29T02:20:47.544Z,45.12
2023-03-29T02:23:18.795Z,45.20
2023-03-29T02:25:45.825Z,45.46
2023-03-29T02:28:12.746Z,45.86
2023-03-29T02:30:42.469Z,46.49
2023-03-29T02:33:11.680Z,46.68
2023-03-29T02:35:48.650Z,47.61
2023-03-29T02:38:15.494Z,47.02
2023-03-29T02:40:44.842Z,47.81
2023-03-29T02:43:14.424Z,47.98
2023-03-29T02:45:41.188Z,47.50
2023-03-29T02:48:08.996Z,47.62
2023-03-29T02:50:36.643Z,47.15
2023-03-29T02:53:27.935Z,46.87
2023-03-29T02:55:56.641Z,47.04
2023-03-29T02:58:26.657Z,46.91
2023-03-29T03:00:55.807Z,46.76
2023-03-29T03:03:22.531Z,47.71
2023-03-29T03:05:52.616Z,47.44
2023-03-29T03:08:21.908Z,47.12
2023-03-29T03:10:49.132Z,47.28
2023-03-29T03:13:18.379Z,47.42
2023-03-29T03:15:49.120Z,47.43
2023-03-29T03:18:16.765Z,47.60
2023-03-29T03:20:47.242Z,47.26
2023-03-29T03:23:15.964Z,47.33
2023-03-29T03:25:44.792Z,47.54
2023-03-29T03:28:12.483Z,47.66
2023-03-29T03:30:39.297Z,47.94
2023-03-29T03:33:25.169Z,47.53
2023-03-29T03:36:06.979Z,47.75
2023-03-29T03:38:36.274Z,47.88
2023-03-29T03:41:04.281Z,47.88
2023-03-29T03:43:35.646Z,47.55
2023-03-29T03:46:02.388Z,47.89
2023-03-29T03:48:30.059Z,47.74
2023-03-29T03:51:09.593Z,47.83
2023-03-29T03:53:36.411Z,47.77
2023-03-29T03:56:23.591Z,47.62
2023-03-29T03:59:12.973Z,47.46
2023-03-29T04:01:55.036Z,47.61
2023-03-29T04:04:24.149Z,47.50
2023-03-29T04:07:14.290Z,47.50
2023-03-29T04:09:55.781Z,47.37
2023-03-29T04:12:40.745Z,47.36
2023-03-29T04:15:08.774Z,47.22
2023-03-29T04:17:36.077Z,47.41
2023-03-29T04:20:32.085Z,47.59
2023-03-29T04:23:01.638Z,47.35
2023-03-29T04:25:28.963Z,47.32
2023-03-29T04:27:58.281Z,47.16
2023-03-29T04:30:52.896Z,46.98
2023-03-29T04:33:57.759Z,47.00
2023-03-29T04:36:26.380Z,46.82
2023-03-29T04:38:53.043Z,46.52
2023-03-29T04:41:50.550Z,46.61
2023-03-29T04:44:47.892Z,46.30
2023-03-29T04:47:24.272Z,46.47
2023-03-29T04:50:00.506Z,46.39
2023-03-29T04:52:45.469Z,46.51
2023-03-29T04:55:14.925Z,46.39
2023-03-29T04:57:54.074Z,46.26
2023-03-29T05:00:38.192Z,45.99
2023-03-29T05:10:47.553Z,45.81
2023-03-29T05:13:14.957Z,45.97
2023-03-29T05:15:42.026Z,45.97
2023-03-29T05:18:12.322Z,45.87
2023-03-29T05:20:43.843Z,45.45
2023-03-29T05:23:15.210Z,44.66
2023-03-29T05:26:02.705Z,44.60
2023-03-29T05:28:29.514Z,44.55
2023-03-29T05:31:06.278Z,43.97
2023-03-29T05:33:40.871Z,42.75
2023-03-29T05:36:11.259Z,41.70
2023-03-29T05:38:45.177Z,39.92
2023-03-29T05:41:12.567Z,40.80
2023-03-29T05:44:08.964Z,42.13
2023-03-29T05:46:40.462Z,42.25
2023-03-29T05:49:08.904Z,42.27
2023-03-29T05:51:57.565Z,42.35
2023-03-29T05:54:28.058Z,42.22
2023-03-29T05:56:54.912Z,42.25
2023-03-29T05:59:23.529Z,42.57
2023-03-29T06:01:55.329Z,42.15
2023-03-29T06:04:22.337Z,42.38
2023-03-29T06:07:02.224Z,41.90
2023-03-29T06:09:29.386Z,41.75
2023-03-29T06:12:02.186Z,41.09
2023-03-29T06:14:28.998Z,41.04
2023-03-29T06:17:09.842Z,41.25
2023-03-29T06:19:37.113Z,41.19
2023-03-29T06:22:03.791Z,40.91
2023-03-29T06:24:33.092Z,41.47
2023-03-29T06:27:07.371Z,41.50
2023-03-29T06:29:36.979Z,41.19
2023-03-29T06:32:03.860Z,41.26
2023-03-29T06:34:56.877Z,40.90
2023-03-29T06:37:40.242Z,40.79
2023-03-29T06:40:33.489Z,40.07
2023-03-29T06:43:00.389Z,40.22
2023-03-29T06:45:31.464Z,39.88
2023-03-29T06:48:00.381Z,39.77
2023-03-29T06:50:30.784Z,39.50
2023-03-29T06:53:07.407Z,39.48
2023-03-29T06:55:37.187Z,39.52
2023-03-29T06:58:22.191Z,38.83
2023-03-29T07:00:49.263Z,39.19
2023-03-29T07:03:28.017Z,38.55
2023-03-29T07:06:01.701Z,37.44
2023-03-29T07:08:31.844Z,36.60
2023-03-29T07:11:03.378Z,37.55
2023-03-29T07:13:39.293Z,37.71
2023-03-29T07:16:12.977Z,36.96
2023-03-29T07:18:48.572Z,37.70
2023-03-29T07:21:37.412Z,37.47
2023-03-29T07:24:06.971Z,37.16
2023-03-29T07:26:35.060Z,37.03
2023-03-29T07:29:02.042Z,37.16
2023-03-29T07:31:35.458Z,36.52
2023-03-29T07:34:22.660Z,35.71
2023-03-29T07:36:52.126Z,37.18
2023-03-29T07:39:18.915Z,35.91
2023-03-29T07:42:01.500Z,35.69
2023-03-29T07:44:29.563Z,35.80
2023-03-29T07:46:56.573Z,35.63
2023-03-29T07:49:23.329Z,36.44
2023-03-29T07:51:49.912Z,35.35
2023-03-29T07:54:16.552Z,34.23
2023-03-29T07:57:19.061Z,33.28
2023-03-29T07:59:51.855Z,32.67
2023-03-29T08:02:24.987Z,33.76
2023-03-29T08:04:57.495Z,33.29
2023-03-29T08:07:30.391Z,33.63
2023-03-29T08:10:20.723Z,34.04
2023-03-29T08:13:07.450Z,33.35
2023-03-29T08:16:06.791Z,30.99
2023-03-29T08:18:38.967Z,29.16
2023-03-29T08:21:09.994Z,28.43
2023-03-29T08:23:36.897Z,30.90
2023-03-29T08:26:12.612Z,29.71
2023-03-29T08:28:42.512Z,28.55
2023-03-29T08:31:12.990Z,28.61
2023-03-29T08:33:44.242Z,30.26
2023-03-29T08:36:29.477Z,28.92
2023-03-29T08:39:02.057Z,30.67
2023-03-29T08:41:37.909Z,32.45
2023-03-29T08:44:07.997Z,31.35
2023-03-29T08:47:03.832Z,33.12
2023-03-29T08:49:36.826Z,33.69
2023-03-29T08:52:05.734Z,34.64
2023-03-29T08:54:38.553Z,32.65
2023-03-29T08:57:17.122Z,32.35
2023-03-29T08:59:52.448Z,32.38
2023-03-29T09:02:31.204Z,33.22
2023-03-29T09:05:07.926Z,32.72
2023-03-29T09:07:45.264Z,32.36
2023-03-29T09:10:18.608Z,32.27
2023-03-29T09:13:03.907Z,33.68
2023-03-29T09:15:33.787Z,32.79
2023-03-29T09:18:27.035Z,33.28
2023-03-29T09:21:03.255Z,31.29
2023-03-29T09:23:33.457Z,31.78
2023-03-29T09:26:11.265Z,32.69
2023-03-29T09:29:09.473Z,32.43
2023-03-29T09:31:37.396Z,30.77
2023-03-29T09:34:06.023Z,30.44
2023-03-29T09:36:57.209Z,30.63
2023-03-29T09:39:26.573Z,30.87
2023-03-29T09:42:04.711Z,31.18
2023-03-29T09:44:33.189Z,29.47
2023-03-29T09:47:09.391Z,31.04
2023-03-29T09:49:42.221Z,30.70
2023-03-29T09:52:10.905Z,31.29
2023-03-29T09:54:38.477Z,29.94
2023-03-29T09:57:18.222Z,29.92
2023-03-29T09:59:46.201Z,30.03
2023-03-29T10:02:17.716Z,29.58
2023-03-29T10:04:44.711Z,29.13
2023-03-29T10:07:16.758Z,30.18
2023-03-29T10:09:44.679Z,30.09
2023-03-29T10:12:19.219Z,29.47
2023-03-29T10:14:49.468Z,29.53
2023-03-29T10:17:22.441Z,29.33
2023-03-29T10:20:04.049Z,28.29
2023-03-29T10:22:37.573Z,29.05
2023-03-29T10:25:04.986Z,27.67
2023-03-29T10:27:32.728Z,27.88
2023-03-29T10:30:00.218Z,28.07
2023-03-29T10:32:32.495Z,28.16
2023-03-29T10:35:03.866Z,28.97
2023-03-29T10:37:35.523Z,28.77
2023-03-29T10:40:02.139Z,29.27
2023-03-29T10:42:28.946Z,28.64
2023-03-29T10:44:58.789Z,28.51
2023-03-29T10:47:25.787Z,28.22
2023-03-29T10:49:56.941Z,26.23
2023-03-29T10:52:24.026Z,27.91
2023-03-29T10:54:53.953Z,26.61
2023-03-29T10:57:30.663Z,25.06
2023-03-29T11:00:06.999Z,27.58
2023-03-29T11:02:37.005Z,27.02
2023-03-29T11:05:16.548Z,26.22
2023-03-29T11:07:48.404Z,26.04
2023-03-29T11:10:15.639Z,26.03
2023-03-29T11:12:50.726Z,27.86
2023-03-29T11:15:17.759Z,25.41
2023-03-29T11:17:50.830Z,26.12
2023-03-29T11:20:17.630Z,26.46
2023-03-29T11:22:57.405Z,27.26
2023-03-29T11:25:24.654Z,26.64
2023-03-29T11:27:54.446Z,24.60
2023-03-29T11:30:34.016Z,24.58
2023-03-29T11:33:07.208Z,25.03
2023-03-29T11:35:52.735Z,25.94
2023-03-29T11:38:27.970Z,26.55
2023-03-29T11:41:00.238Z,26.56
2023-03-29T11:43:34.778Z,26.51
2023-03-29T11:46:09.117Z,24.65
2023-03-29T11:48:38.819Z,25.80
2023-03-29T11:51:12.455Z,26.50
2023-03-29T11:53:46.028Z,26.60
2023-03-29T11:56:17.480Z,27.16
2023-03-29T11:58:48.990Z,27.91
2023-03-29T12:01:31.038Z,28.28
2023-03-29T12:04:01.159Z,28.17
2023-03-29T12:06:34.090Z,27.84
2023-03-29T12:09:04.117Z,28.46
2023-03-29T12:11:32.303Z,29.45
2023-03-29T12:14:22.014Z,29.30
2023-03-29T12:16:57.564Z,28.55
2023-03-29T12:19:37.565Z,27.70
2023-03-29T12:22:08.190Z,27.59
2023-03-29T12:24:40.551Z,27.81
2023-03-29T12:27:19.954Z,27.44
2023-03-29T12:30:10.044Z,27.93
2023-03-29T12:32:45.387Z,26.96
2023-03-29T12:35:42.237Z,27.23
2023-03-29T12:38:30.952Z,28.22
2023-03-29T12:41:17.274Z,26.12
2023-03-29T12:44:06.878Z,26.52
2023-03-29T12:47:01.096Z,27.86
2023-03-29T12:49:28.756Z,27.27
2023-03-29T12:51:57.183Z,27.70
2023-03-29T12:54:26.774Z,27.97
2023-03-29T12:57:00.320Z,27.72
2023-03-29T12:59:43.009Z,27.19
2023-03-29T13:02:13.985Z,25.71
2023-03-29T13:04:46.154Z,25.65
2023-03-29T13:07:17.151Z,24.72
2023-03-29T13:09:48.143Z,26.13
2023-03-29T13:12:18.218Z,26.95
2023-03-29T13:14:48.565Z,25.55
2023-03-29T13:17:31.957Z,25.45
2023-03-29T13:20:09.354Z,26.47
2023-03-29T13:22:54.238Z,26.13
2023-03-29T13:25:20.878Z,25.85
2023-03-29T13:27:59.566Z,26.52
2023-03-29T13:30:28.648Z,25.71
2023-03-29T13:33:30.500Z,26.59
2023-03-29T13:35:57.151Z,27.51
2023-03-29T13:38:28.905Z,27.25
2023-03-29T13:40:59.769Z,26.78
2023-03-29T13:43:32.908Z,24.41
2023-03-29T13:45:59.552Z,23.30
2023-03-29T13:48:27.440Z,22.62
2023-03-29T13:50:55.372Z,22.13
2023-03-29T13:53:31.721Z,23.38
2023-03-29T13:56:00.953Z,23.74
2023-03-29T13:58:38.443Z,24.11
2023-03-29T14:01:20.892Z,23.33
2023-03-29T14:03:51.618Z,23.36
2023-03-29T14:06:27.997Z,21.86
2023-03-29T14:08:54.657Z,22.49
2023-03-29T14:11:23.851Z,22.80
2023-03-29T14:13:57.244Z,23.57
2023-03-29T14:16:26.281Z,23.70
2023-03-29T14:18:53.083Z,22.55
2023-03-29T14:21:20.458Z,23.46
2023-03-29T14:23:49.970Z,23.00
2023-03-29T14:26:25.180Z,23.61
2023-03-29T14:28:56.812Z,23.63
2023-03-29T14:31:26.211Z,24.65
2023-03-29T14:33:54.159Z,25.10
2023-03-29T14:36:22.088Z,24.81
2023-03-29T14:38:50.919Z,26.12
2023-03-29T14:41:17.695Z,26.63
2023-03-29T14:43:46.903Z,27.51
2023-03-29T14:46:23.154Z,27.94
2023-03-29T14:48:52.385Z,28.48
2023-03-29T14:51:23.824Z,29.52
2023-03-29T14:53:53.484Z,29.81
2023-03-29T14:56:24.233Z,29.43
2023-03-29T14:58:52.314Z,30.03
2023-03-29T15:01:25.007Z,30.23
2023-03-29T15:04:10.867Z,30.57
2023-03-29T15:06:50.831Z,31.34
2023-03-29T15:09:23.118Z,31.88
2023-03-29T15:11:55.907Z,31.63
2023-03-29T15:14:23.558Z,31.90
2023-03-29T15:16:51.427Z,32.06
2023-03-29T15:19:21.130Z,32.11
2023-03-29T15:21:49.239Z,31.79
2023-03-29T15:24:24.480Z,32.00
2023-03-29T15:26:58.275Z,31.76
2023-03-29T15:29:26.425Z,31.79
2023-03-29T15:31:56.988Z,31.79
2023-03-29T15:34:27.367Z,31.69
2023-03-29T15:36:57.647Z,31.63
2023-03-29T15:39:24.946Z,32.10
2023-03-29T15:41:52.237Z,32.30
2023-03-29T15:44:29.400Z,32.48
2023-03-29T15:46:57.767Z,32.16
2023-03-29T15:49:25.553Z,32.04
2023-03-29T15:51:57.019Z,31.91
2023-03-29T15:54:26.199Z,31.89
2023-03-29T15:56:57.279Z,31.98
2023-03-29T15:59:28.622Z,32.35
2023-03-29T16:01:55.484Z,32.41
2023-03-29T16:07:15.613Z,32.61
2023-03-29T16:09:42.680Z,32.56
2023-03-29T16:12:10.009Z,32.35
2023-03-29T16:14:36.796Z,32.49
2023-03-29T16:17:04.017Z,32.65
2023-03-29T16:19:31.327Z,32.80
2023-03-29T16:21:58.373Z,32.71
2023-03-29T16:24:26.334Z,32.75
2023-03-29T16:26:55.384Z,32.81
2023-03-29T16:29:22.837Z,33.13
2023-03-29T16:31:49.795Z,33.23
2023-03-29T16:34:18.987Z,33.35
2023-03-29T16:36:46.008Z,33.31
2023-03-29T16:39:16.006Z,33.45
2023-03-29T16:41:46.908Z,33.59
2023-03-29T16:44:19.053Z,33.69
2023-03-29T16:46:49.814Z,33.79
2023-03-29T16:49:19.328Z,33.78
2023-03-29T16:51:46.924Z,33.80
2023-03-29T16:54:17.137Z,33.86
2023-03-29T16:56:43.910Z,34.04
2023-03-29T16:59:12.914Z,33.91
2023-03-29T17:01:44.588Z,34.28
2023-03-29T17:04:11.692Z,34.78
2023-03-29T17:06:38.584Z,34.60
2023-03-29T17:09:07.873Z,34.93
2023-03-29T17:11:34.715Z,35.08
2023-03-29T17:14:02.514Z,35.05
2023-03-29T17:16:29.624Z,35.64
2023-03-29T17:18:58.483Z,35.65
2023-03-29T17:21:25.570Z,35.50
2023-03-29T17:23:52.366Z,36.80
2023-03-29T17:26:18.996Z,36.59
2023-03-29T17:28:48.962Z,36.63
2023-03-29T17:31:16.381Z,36.39
2023-03-29T17:33:45.452Z,36.54
2023-03-29T17:36:12.248Z,37.21
2023-03-29T17:38:39.172Z,37.02
2023-03-29T17:41:07.128Z,38.02
2023-03-29T17:43:34.213Z,39.04
2023-03-29T17:46:01.209Z,39.12
2023-03-29T17:48:32.888Z,39.11
2023-03-29T17:50:59.968Z,40.08
2023-03-29T17:53:27.756Z,40.81
2023-03-29T17:55:54.481Z,41.68
2023-03-29T17:58:21.431Z,41.83
2023-03-29T18:00:48.116Z,41.66
2023-03-29T18:03:14.940Z,42.41
2023-03-29T18:05:44.307Z,42.40
2023-03-29T18:08:13.066Z,42.58
2023-03-29T18:10:39.978Z,42.42
2023-03-29T18:13:13.869Z,41.51
2023-03-29T18:15:44.102Z,41.16
2023-03-29T18:18:11.238Z,41.73
2023-03-29T18:20:37.882Z,42.04
2023-03-29T18:23:04.556Z,42.20
2023-03-29T18:25:31.229Z,41.96
2023-03-29T18:27:58.326Z,41.90
2023-03-29T18:30:30.065Z,41.69
2023-03-29T18:32:56.682Z,41.97
2023-03-29T18:35:27.939Z,42.90
2023-03-29T18:37:55.005Z,42.87
2023-03-29T18:40:27.640Z,43.16
2023-03-29T18:42:54.276Z,42.79
2023-03-29T18:45:22.274Z,42.43
2023-03-29T18:47:51.010Z,42.11
2023-03-29T18:50:20.094Z,42.92
2023-03-29T18:52:46.803Z,42.12
2023-03-29T18:55:13.396Z,41.89
2023-03-29T18:57:40.439Z,42.67
2023-03-29T19:00:12.084Z,42.16
2023-03-29T19:02:43.260Z,43.14
2023-03-29T19:05:13.707Z,43.63
2023-03-29T19:07:40.497Z,43.36
2023-03-29T19:10:07.826Z,43.89
2023-03-29T19:12:36.801Z,43.54
2023-03-29T19:15:05.930Z,43.88
2023-03-29T19:17:35.107Z,43.60
2023-03-29T19:20:10.240Z,43.77
2023-03-29T19:22:41.407Z,44.30
2023-03-29T19:25:08.423Z,43.89
2023-03-29T19:27:39.594Z,43.61
2023-03-29T19:30:06.524Z,43.19
2023-03-29T19:32:33.840Z,43.30
2023-03-29T19:35:03.097Z,44.46
2023-03-29T19:37:29.913Z,44.02
2023-03-29T19:39:57.143Z,44.19
2023-03-29T19:42:26.504Z,44.10
2023-03-29T19:44:53.089Z,43.92
2023-03-29T19:47:19.674Z,43.96
2023-03-29T19:49:46.560Z,44.25
2023-03-29T19:52:15.585Z,44.95
2023-03-29T19:54:42.584Z,44.21
2023-03-29T19:57:09.339Z,44.14
2023-03-29T19:59:40.746Z,44.27
2023-03-29T20:02:07.763Z,43.68
2023-03-29T20:04:36.382Z,43.57
2023-03-29T20:07:13.938Z,43.39
2023-03-29T20:09:47.974Z,43.67
2023-03-29T20:12:17.411Z,44.92
2023-03-29T20:14:44.065Z,45.57
2023-03-29T20:17:13.100Z,45.98
2023-03-29T20:19:44.419Z,46.41
2023-03-29T20:22:11.462Z,46.64
2023-03-29T20:24:38.202Z,46.33
2023-03-29T20:27:04.873Z,46.15
2023-03-29T20:29:34.047Z,46.04
2023-03-29T20:32:00.837Z,46.41
2023-03-29T20:34:27.911Z,46.00
2023-03-29T20:37:00.841Z,45.93
2023-03-29T20:39:31.495Z,46.51
2023-03-29T20:42:04.489Z,46.52
2023-03-29T20:44:32.401Z,46.31
2023-03-29T20:47:17.285Z,46.51
2023-03-29T20:50:01.588Z,46.66
2023-03-29T20:52:30.774Z,46.76
2023-03-29T20:54:57.496Z,46.94
2023-03-29T20:57:24.640Z,46.07
2023-03-29T20:59:56.996Z,45.71
2023-03-29T21:02:26.335Z,45.82
2023-03-29T21:04:53.588Z,45.51
2023-03-29T21:07:21.388Z,45.63
2023-03-29T21:09:49.856Z,45.35
2023-03-29T21:12:20.211Z,45.84
2023-03-29T21:14:47.479Z,45.44
2023-03-29T21:17:16.467Z,45.41
2023-03-29T21:19:43.060Z,45.17
2023-03-29T21:22:13.764Z,45.04
2023-03-29T21:24:40.626Z,44.92
2023-03-29T21:27:07.478Z,45.30
2023-03-29T21:29:37.183Z,45.10
2023-03-29T21:32:04.687Z,46.36
2023-03-29T21:34:36.649Z,45.97
2023-03-29T21:37:03.303Z,46.35
2023-03-29T21:39:30.545Z,45.73
2023-03-29T21:41:59.877Z,45.82
2023-03-29T21:44:26.614Z,45.38
2023-03-29T21:46:58.495Z,45.45
2023-03-29T21:49:25.447Z,45.74
2023-03-29T21:51:52.418Z,45.59
2023-03-29T21:54:21.447Z,45.43
2023-03-29T21:56:48.122Z,45.42
2023-03-29T21:59:15.208Z,45.84
2023-03-29T22:01:43.978Z,45.74
2023-03-29T22:04:10.988Z,46.00
2023-03-29T22:06:37.654Z,46.35
2023-03-29T22:09:05.143Z,46.54
2023-03-29T22:11:31.892Z,46.15
2023-03-29T22:13:58.690Z,46.16
2023-03-29T22:16:31.507Z,45.82
2023-03-29T22:21:51.469Z,45.98
2023-03-29T22:24:18.236Z,46.12
2023-03-29T22:26:48.141Z,45.95
2023-03-29T22:29:17.422Z,46.09
2023-03-29T22:31:44.562Z,46.82
2023-03-29T22:34:11.587Z,46.70
2023-03-29T22:36:40.704Z,47.21
2023-03-29T22:39:11.084Z,47.69
2023-03-29T22:41:37.754Z,46.77
2023-03-29T22:44:04.650Z,47.58
2023-03-29T22:46:31.699Z,47.68
2023-03-29T22:48:58.476Z,47.24
2023-03-29T22:51:25.163Z,47.38
2023-03-29T22:53:54.101Z,47.37
2023-03-29T22:56:20.781Z,47.00
2023-03-29T22:58:47.900Z,47.20
2023-03-29T23:01:14.665Z,47.11
2023-03-29T23:03:46.591Z,47.62
2023-03-29T23:06:13.295Z,47.37
2023-03-29T23:08:45.315Z,47.53
2023-03-29T23:11:14.433Z,47.58
2023-03-29T23:13:48.951Z,47.51
2023-03-29T23:16:15.753Z,48.28
2023-03-29T23:18:42.460Z,47.84
2023-03-29T23:21:10.515Z,47.81
2023-03-29T23:23:37.560Z,47.22
2023-03-29T23:26:04.442Z,47.29
2023-03-29T23:28:31.614Z,47.29
2023-03-29T23:31:05.706Z,46.98
2023-03-29T23:33:35.326Z,47.24
2023-03-29T23:36:05.977Z,46.93
2023-03-29T23:38:36.449Z,46.99
2023-03-29T23:41:06.806Z,46.88
2023-03-29T23:43:35.057Z,47.19
2023-03-29T23:46:15.658Z,46.99
2023-03-29T23:48:46.203Z,46.66
2023-03-29T23:51:12.874Z,46.68
2023-03-29T23:53:41.731Z,46.54
2023-03-29T23:56:11.000Z,46.75
2023-03-29T23:58:38.040Z,47.40
